sensor_id;sensor_type;location;lat;lon;timestamp;P1;durP1;ratioP1;P2;durP2;ratioP2
42832;SDS011;28479;51.478;5.692;2022-07-29T00:00:42;7.28;;;0.82;;
42832;SDS011;28479;51.478;5.692;2022-07-29T00:03:11;12.50;;;2.13;;
42832;SDS011;28479;51.478;5.692;2022-07-29T00:05:40;13.88;;;2.17;;
42832;SDS011;28479;51.478;5.692;2022-07-29T00:08:09;13.73;;;2.00;;
42832;SDS011;28479;51.478;5.692;2022-07-29T00:10:35;5.05;;;1.27;;
42832;SDS011;28479;51.478;5.692;2022-07-29T00:13:01;5.93;;;1.83;;
42832;SDS011;28479;51.478;5.692;2022-07-29T00:15:27;8.88;;;1.77;;
42832;SDS011;28479;51.478;5.692;2022-07-29T00:17:53;6.18;;;1.88;;
42832;SDS011;28479;51.478;5.692;2022-07-29T00:20:31;6.38;;;2.03;;
42832;SDS011;28479;51.478;5.692;2022-07-29T00:22:56;2.22;;;1.30;;
42832;SDS011;28479;51.478;5.692;2022-07-29T00:25:25;4.28;;;1.67;;
42832;SDS011;28479;51.478;5.692;2022-07-29T00:27:51;4.00;;;1.77;;
42832;SDS011;28479;51.478;5.692;2022-07-29T00:30:17;3.70;;;1.95;;
42832;SDS011;28479;51.478;5.692;2022-07-29T00:32:43;2.30;;;1.58;;
42832;SDS011;28479;51.478;5.692;2022-07-29T00:35:14;3.13;;;1.88;;
42832;SDS011;28479;51.478;5.692;2022-07-29T00:38:03;7.93;;;2.72;;
42832;SDS011;28479;51.478;5.692;2022-07-29T00:40:30;4.80;;;2.10;;
42832;SDS011;28479;51.478;5.692;2022-07-29T00:42:55;7.53;;;1.95;;
42832;SDS011;28479;51.478;5.692;2022-07-29T00:45:21;4.97;;;1.90;;
42832;SDS011;28479;51.478;5.692;2022-07-29T00:47:47;7.32;;;2.13;;
42832;SDS011;28479;51.478;5.692;2022-07-29T00:50:13;4.72;;;1.80;;
42832;SDS011;28479;51.478;5.692;2022-07-29T00:52:39;2.08;;;1.38;;
42832;SDS011;28479;51.478;5.692;2022-07-29T00:55:07;4.30;;;2.05;;
42832;SDS011;28479;51.478;5.692;2022-07-29T00:57:35;9.77;;;2.03;;
42832;SDS011;28479;51.478;5.692;2022-07-29T01:00:04;4.90;;;2.10;;
42832;SDS011;28479;51.478;5.692;2022-07-29T01:02:31;3.65;;;1.60;;
42832;SDS011;28479;51.478;5.692;2022-07-29T01:04:57;4.57;;;1.98;;
42832;SDS011;28479;51.478;5.692;2022-07-29T01:07:24;5.90;;;1.73;;
42832;SDS011;28479;51.478;5.692;2022-07-29T01:09:51;3.17;;;1.55;;
42832;SDS011;28479;51.478;5.692;2022-07-29T01:12:22;2.85;;;1.40;;
42832;SDS011;28479;51.478;5.692;2022-07-29T01:14:52;3.53;;;1.80;;
42832;SDS011;28479;51.478;5.692;2022-07-29T01:28:38;8.65;;;2.30;;
42832;SDS011;28479;51.478;5.692;2022-07-29T01:34:25;3.47;;;1.95;;
42832;SDS011;28479;51.478;5.692;2022-07-29T01:39:40;5.50;;;3.00;;
42832;SDS011;28479;51.478;5.692;2022-07-29T01:42:10;8.20;;;2.10;;
42832;SDS011;28479;51.478;5.692;2022-07-29T01:44:57;3.72;;;2.85;;
42832;SDS011;28479;51.478;5.692;2022-07-29T01:47:26;7.20;;;2.30;;
42832;SDS011;28479;51.478;5.692;2022-07-29T01:49:58;5.53;;;2.55;;
42832;SDS011;28479;51.478;5.692;2022-07-29T01:52:38;4.80;;;2.58;;
42832;SDS011;28479;51.478;5.692;2022-07-29T01:55:12;4.75;;;2.42;;
42832;SDS011;28479;51.478;5.692;2022-07-29T01:57:40;11.43;;;2.83;;
42832;SDS011;28479;51.478;5.692;2022-07-29T02:00:14;4.82;;;2.47;;
42832;SDS011;28479;51.478;5.692;2022-07-29T02:02:41;6.95;;;2.83;;
42832;SDS011;28479;51.478;5.692;2022-07-29T02:05:10;4.70;;;3.20;;
42832;SDS011;28479;51.478;5.692;2022-07-29T02:07:38;11.73;;;2.70;;
42832;SDS011;28479;51.478;5.692;2022-07-29T02:10:07;6.50;;;2.35;;
42832;SDS011;28479;51.478;5.692;2022-07-29T02:12:35;8.05;;;2.15;;
42832;SDS011;28479;51.478;5.692;2022-07-29T02:15:03;7.32;;;2.13;;
42832;SDS011;28479;51.478;5.692;2022-07-29T02:17:36;2.80;;;1.92;;
42832;SDS011;28479;51.478;5.692;2022-07-29T02:20:10;4.75;;;2.42;;
42832;SDS011;28479;51.478;5.692;2022-07-29T02:22:37;4.40;;;2.22;;
42832;SDS011;28479;51.478;5.692;2022-07-29T02:25:05;6.47;;;2.88;;
42832;SDS011;28479;51.478;5.692;2022-07-29T02:27:32;5.22;;;2.60;;
42832;SDS011;28479;51.478;5.692;2022-07-29T02:30:00;12.23;;;2.45;;
42832;SDS011;28479;51.478;5.692;2022-07-29T02:32:28;9.40;;;2.60;;
42832;SDS011;28479;51.478;5.692;2022-07-29T02:34:56;4.47;;;2.40;;
42832;SDS011;28479;51.478;5.692;2022-07-29T02:37:23;6.35;;;2.13;;
42832;SDS011;28479;51.478;5.692;2022-07-29T02:39:50;4.32;;;2.17;;
42832;SDS011;28479;51.478;5.692;2022-07-29T02:42:18;4.75;;;1.83;;
42832;SDS011;28479;51.478;5.692;2022-07-29T02:44:47;2.30;;;2.03;;
42832;SDS011;28479;51.478;5.692;2022-07-29T02:47:24;10.27;;;2.30;;
42832;SDS011;28479;51.478;5.692;2022-07-29T02:50:23;3.58;;;1.90;;
42832;SDS011;28479;51.478;5.692;2022-07-29T02:52:59;3.40;;;2.13;;
42832;SDS011;28479;51.478;5.692;2022-07-29T02:55:33;6.93;;;2.40;;
42832;SDS011;28479;51.478;5.692;2022-07-29T02:58:08;8.43;;;2.25;;
42832;SDS011;28479;51.478;5.692;2022-07-29T03:00:41;3.90;;;2.08;;
42832;SDS011;28479;51.478;5.692;2022-07-29T03:03:13;8.32;;;2.22;;
42832;SDS011;28479;51.478;5.692;2022-07-29T03:05:41;3.65;;;1.98;;
42832;SDS011;28479;51.478;5.692;2022-07-29T03:08:10;3.90;;;2.47;;
42832;SDS011;28479;51.478;5.692;2022-07-29T03:10:43;4.55;;;2.15;;
42832;SDS011;28479;51.478;5.692;2022-07-29T03:13:10;5.03;;;2.50;;
42832;SDS011;28479;51.478;5.692;2022-07-29T03:15:38;3.88;;;2.65;;
42832;SDS011;28479;51.478;5.692;2022-07-29T03:18:04;2.70;;;2.22;;
42832;SDS011;28479;51.478;5.692;2022-07-29T03:20:31;5.03;;;2.45;;
42832;SDS011;28479;51.478;5.692;2022-07-29T03:22:57;2.92;;;1.98;;
42832;SDS011;28479;51.478;5.692;2022-07-29T03:25:22;2.97;;;2.10;;
42832;SDS011;28479;51.478;5.692;2022-07-29T03:27:48;5.80;;;2.28;;
42832;SDS011;28479;51.478;5.692;2022-07-29T03:30:14;3.35;;;2.47;;
42832;SDS011;28479;51.478;5.692;2022-07-29T03:32:41;5.53;;;2.30;;
42832;SDS011;28479;51.478;5.692;2022-07-29T03:35:06;4.25;;;2.40;;
42832;SDS011;28479;51.478;5.692;2022-07-29T03:37:32;3.33;;;2.40;;
42832;SDS011;28479;51.478;5.692;2022-07-29T03:39:58;3.47;;;1.67;;
42832;SDS011;28479;51.478;5.692;2022-07-29T03:42:27;3.72;;;2.17;;
42832;SDS011;28479;51.478;5.692;2022-07-29T03:44:56;2.63;;;1.95;;
42832;SDS011;28479;51.478;5.692;2022-07-29T03:47:24;8.35;;;2.85;;
42832;SDS011;28479;51.478;5.692;2022-07-29T03:49:54;4.55;;;2.78;;
42832;SDS011;28479;51.478;5.692;2022-07-29T03:52:24;4.07;;;2.45;;
42832;SDS011;28479;51.478;5.692;2022-07-29T03:54:50;5.22;;;2.50;;
42832;SDS011;28479;51.478;5.692;2022-07-29T03:57:34;4.93;;;2.53;;
42832;SDS011;28479;51.478;5.692;2022-07-29T04:00:01;5.35;;;2.40;;
42832;SDS011;28479;51.478;5.692;2022-07-29T04:02:29;4.20;;;2.78;;
42832;SDS011;28479;51.478;5.692;2022-07-29T04:04:56;5.22;;;3.08;;
42832;SDS011;28479;51.478;5.692;2022-07-29T04:07:24;5.15;;;3.35;;
42832;SDS011;28479;51.478;5.692;2022-07-29T04:09:50;4.95;;;3.15;;
42832;SDS011;28479;51.478;5.692;2022-07-29T04:12:16;7.07;;;2.78;;
42832;SDS011;28479;51.478;5.692;2022-07-29T04:14:42;3.85;;;2.28;;
42832;SDS011;28479;51.478;5.692;2022-07-29T04:17:10;10.02;;;2.88;;
42832;SDS011;28479;51.478;5.692;2022-07-29T04:19:35;3.90;;;2.60;;
42832;SDS011;28479;51.478;5.692;2022-07-29T04:22:01;4.88;;;2.78;;
42832;SDS011;28479;51.478;5.692;2022-07-29T04:24:27;6.05;;;2.58;;
42832;SDS011;28479;51.478;5.692;2022-07-29T04:26:53;3.35;;;2.33;;
42832;SDS011;28479;51.478;5.692;2022-07-29T04:29:29;6.07;;;3.05;;
42832;SDS011;28479;51.478;5.692;2022-07-29T04:31:55;6.90;;;3.13;;
42832;SDS011;28479;51.478;5.692;2022-07-29T04:34:21;8.50;;;3.15;;
42832;SDS011;28479;51.478;5.692;2022-07-29T04:36:46;18.52;;;3.17;;
42832;SDS011;28479;51.478;5.692;2022-07-29T04:39:12;4.07;;;2.97;;
42832;SDS011;28479;51.478;5.692;2022-07-29T04:41:40;4.95;;;2.90;;
42832;SDS011;28479;51.478;5.692;2022-07-29T04:44:05;4.53;;;3.53;;
42832;SDS011;28479;51.478;5.692;2022-07-29T04:46:31;10.88;;;4.07;;
42832;SDS011;28479;51.478;5.692;2022-07-29T04:48:57;9.05;;;3.55;;
42832;SDS011;28479;51.478;5.692;2022-07-29T04:51:23;7.72;;;3.58;;
42832;SDS011;28479;51.478;5.692;2022-07-29T04:53:48;5.78;;;3.17;;
42832;SDS011;28479;51.478;5.692;2022-07-29T04:56:14;6.32;;;3.22;;
42832;SDS011;28479;51.478;5.692;2022-07-29T04:58:42;8.20;;;2.95;;
42832;SDS011;28479;51.478;5.692;2022-07-29T05:01:08;9.82;;;3.08;;
42832;SDS011;28479;51.478;5.692;2022-07-29T05:03:33;4.03;;;2.88;;
42832;SDS011;28479;51.478;5.692;2022-07-29T05:06:05;4.60;;;3.28;;
42832;SDS011;28479;51.478;5.692;2022-07-29T05:08:30;4.32;;;3.15;;
42832;SDS011;28479;51.478;5.692;2022-07-29T05:10:56;4.72;;;3.33;;
42832;SDS011;28479;51.478;5.692;2022-07-29T05:13:25;3.55;;;3.05;;
42832;SDS011;28479;51.478;5.692;2022-07-29T05:15:53;4.25;;;2.78;;
42832;SDS011;28479;51.478;5.692;2022-07-29T05:18:18;14.40;;;3.28;;
42832;SDS011;28479;51.478;5.692;2022-07-29T05:20:44;5.28;;;3.53;;
42832;SDS011;28479;51.478;5.692;2022-07-29T05:23:10;8.00;;;3.38;;
42832;SDS011;28479;51.478;5.692;2022-07-29T05:25:37;6.18;;;3.38;;
42832;SDS011;28479;51.478;5.692;2022-07-29T05:28:03;8.25;;;3.47;;
42832;SDS011;28479;51.478;5.692;2022-07-29T05:30:30;7.65;;;3.65;;
42832;SDS011;28479;51.478;5.692;2022-07-29T05:32:56;5.50;;;3.72;;
42832;SDS011;28479;51.478;5.692;2022-07-29T05:35:24;5.78;;;4.07;;
42832;SDS011;28479;51.478;5.692;2022-07-29T05:37:56;13.98;;;4.65;;
42832;SDS011;28479;51.478;5.692;2022-07-29T05:42:50;6.03;;;4.07;;
42832;SDS011;28479;51.478;5.692;2022-07-29T05:45:20;7.25;;;4.25;;
42832;SDS011;28479;51.478;5.692;2022-07-29T05:47:46;4.85;;;3.85;;
42832;SDS011;28479;51.478;5.692;2022-07-29T05:50:12;5.50;;;3.88;;
42832;SDS011;28479;51.478;5.692;2022-07-29T05:52:38;5.93;;;3.80;;
42832;SDS011;28479;51.478;5.692;2022-07-29T05:55:04;9.82;;;3.45;;
42832;SDS011;28479;51.478;5.692;2022-07-29T05:57:30;11.27;;;3.55;;
42832;SDS011;28479;51.478;5.692;2022-07-29T05:59:57;5.53;;;4.07;;
42832;SDS011;28479;51.478;5.692;2022-07-29T06:02:22;8.57;;;4.18;;
42832;SDS011;28479;51.478;5.692;2022-07-29T06:04:50;10.20;;;3.97;;
42832;SDS011;28479;51.478;5.692;2022-07-29T06:07:16;9.80;;;4.45;;
42832;SDS011;28479;51.478;5.692;2022-07-29T06:09:42;9.07;;;4.43;;
42832;SDS011;28479;51.478;5.692;2022-07-29T06:12:08;7.13;;;3.80;;
42832;SDS011;28479;51.478;5.692;2022-07-29T06:14:34;10.18;;;4.38;;
42832;SDS011;28479;51.478;5.692;2022-07-29T06:17:00;9.13;;;4.60;;
42832;SDS011;28479;51.478;5.692;2022-07-29T06:19:27;6.85;;;3.90;;
42832;SDS011;28479;51.478;5.692;2022-07-29T06:21:52;6.93;;;4.20;;
42832;SDS011;28479;51.478;5.692;2022-07-29T06:24:18;7.00;;;4.22;;
42832;SDS011;28479;51.478;5.692;2022-07-29T06:26:44;7.05;;;4.60;;
42832;SDS011;28479;51.478;5.692;2022-07-29T06:29:10;8.52;;;5.53;;
42832;SDS011;28479;51.478;5.692;2022-07-29T06:31:35;8.85;;;5.00;;
42832;SDS011;28479;51.478;5.692;2022-07-29T06:34:02;10.18;;;4.72;;
42832;SDS011;28479;51.478;5.692;2022-07-29T06:36:33;7.68;;;4.65;;
42832;SDS011;28479;51.478;5.692;2022-07-29T06:39:06;7.82;;;4.88;;
42832;SDS011;28479;51.478;5.692;2022-07-29T06:41:33;11.50;;;5.30;;
42832;SDS011;28479;51.478;5.692;2022-07-29T06:43:58;10.45;;;5.00;;
42832;SDS011;28479;51.478;5.692;2022-07-29T06:46:24;7.55;;;4.53;;
42832;SDS011;28479;51.478;5.692;2022-07-29T06:48:50;10.00;;;5.57;;
42832;SDS011;28479;51.478;5.692;2022-07-29T06:51:16;6.65;;;4.50;;
42832;SDS011;28479;51.478;5.692;2022-07-29T06:53:42;10.35;;;4.22;;
42832;SDS011;28479;51.478;5.692;2022-07-29T06:56:08;7.32;;;5.07;;
42832;SDS011;28479;51.478;5.692;2022-07-29T06:58:34;5.88;;;4.68;;
42832;SDS011;28479;51.478;5.692;2022-07-29T07:01:01;10.60;;;4.57;;
42832;SDS011;28479;51.478;5.692;2022-07-29T07:03:28;5.47;;;4.05;;
42832;SDS011;28479;51.478;5.692;2022-07-29T07:05:57;5.63;;;4.25;;
42832;SDS011;28479;51.478;5.692;2022-07-29T07:08:23;4.57;;;3.67;;
42832;SDS011;28479;51.478;5.692;2022-07-29T07:10:49;7.32;;;4.18;;
42832;SDS011;28479;51.478;5.692;2022-07-29T07:13:16;6.57;;;4.70;;
42832;SDS011;28479;51.478;5.692;2022-07-29T07:15:42;9.48;;;4.70;;
42832;SDS011;28479;51.478;5.692;2022-07-29T07:18:10;8.30;;;4.35;;
42832;SDS011;28479;51.478;5.692;2022-07-29T07:20:36;9.82;;;4.20;;
42832;SDS011;28479;51.478;5.692;2022-07-29T07:23:04;15.73;;;5.53;;
42832;SDS011;28479;51.478;5.692;2022-07-29T07:25:30;6.28;;;4.68;;
42832;SDS011;28479;51.478;5.692;2022-07-29T07:27:56;9.23;;;4.22;;
42832;SDS011;28479;51.478;5.692;2022-07-29T07:30:21;11.90;;;5.00;;
42832;SDS011;28479;51.478;5.692;2022-07-29T07:32:49;8.40;;;4.63;;
42832;SDS011;28479;51.478;5.692;2022-07-29T07:35:15;9.05;;;4.82;;
42832;SDS011;28479;51.478;5.692;2022-07-29T07:37:41;8.25;;;5.07;;
42832;SDS011;28479;51.478;5.692;2022-07-29T07:40:08;7.28;;;4.68;;
42832;SDS011;28479;51.478;5.692;2022-07-29T07:42:35;12.20;;;4.20;;
42832;SDS011;28479;51.478;5.692;2022-07-29T07:45:00;11.98;;;4.65;;
42832;SDS011;28479;51.478;5.692;2022-07-29T07:47:26;13.07;;;5.13;;
42832;SDS011;28479;51.478;5.692;2022-07-29T07:49:52;9.48;;;4.30;;
42832;SDS011;28479;51.478;5.692;2022-07-29T07:52:19;7.25;;;4.90;;
42832;SDS011;28479;51.478;5.692;2022-07-29T07:54:45;6.10;;;4.40;;
42832;SDS011;28479;51.478;5.692;2022-07-29T07:57:12;8.75;;;4.60;;
42832;SDS011;28479;51.478;5.692;2022-07-29T07:59:41;8.07;;;4.55;;
42832;SDS011;28479;51.478;5.692;2022-07-29T08:02:07;6.85;;;4.68;;
42832;SDS011;28479;51.478;5.692;2022-07-29T08:04:33;8.70;;;4.32;;
42832;SDS011;28479;51.478;5.692;2022-07-29T08:06:59;7.47;;;5.32;;
42832;SDS011;28479;51.478;5.692;2022-07-29T08:09:25;9.60;;;4.80;;
42832;SDS011;28479;51.478;5.692;2022-07-29T08:11:52;6.85;;;5.60;;
42832;SDS011;28479;51.478;5.692;2022-07-29T08:14:18;13.30;;;5.07;;
42832;SDS011;28479;51.478;5.692;2022-07-29T08:16:44;8.10;;;4.40;;
42832;SDS011;28479;51.478;5.692;2022-07-29T08:19:09;13.88;;;4.95;;
42832;SDS011;28479;51.478;5.692;2022-07-29T08:21:35;9.20;;;5.10;;
42832;SDS011;28479;51.478;5.692;2022-07-29T08:24:01;8.07;;;5.53;;
42832;SDS011;28479;51.478;5.692;2022-07-29T08:26:59;33.38;;;14.63;;
42832;SDS011;28479;51.478;5.692;2022-07-29T08:29:25;22.20;;;12.95;;
42832;SDS011;28479;51.478;5.692;2022-07-29T08:31:50;38.28;;;16.88;;
42832;SDS011;28479;51.478;5.692;2022-07-29T08:34:16;15.60;;;5.70;;
42832;SDS011;28479;51.478;5.692;2022-07-29T08:36:41;10.63;;;5.28;;
42832;SDS011;28479;51.478;5.692;2022-07-29T08:39:07;9.35;;;3.95;;
42832;SDS011;28479;51.478;5.692;2022-07-29T08:41:32;6.95;;;4.93;;
42832;SDS011;28479;51.478;5.692;2022-07-29T08:43:58;6.57;;;4.50;;
42832;SDS011;28479;51.478;5.692;2022-07-29T08:46:24;5.38;;;4.45;;
42832;SDS011;28479;51.478;5.692;2022-07-29T08:48:49;6.18;;;4.38;;
42832;SDS011;28479;51.478;5.692;2022-07-29T08:51:16;8.63;;;4.03;;
42832;SDS011;28479;51.478;5.692;2022-07-29T08:53:45;7.53;;;3.92;;
42832;SDS011;28479;51.478;5.692;2022-07-29T08:56:15;5.45;;;3.80;;
42832;SDS011;28479;51.478;5.692;2022-07-29T08:58:42;6.75;;;3.90;;
42832;SDS011;28479;51.478;5.692;2022-07-29T09:01:09;7.70;;;4.05;;
42832;SDS011;28479;51.478;5.692;2022-07-29T09:03:37;9.05;;;4.72;;
42832;SDS011;28479;51.478;5.692;2022-07-29T09:06:05;6.18;;;4.72;;
42832;SDS011;28479;51.478;5.692;2022-07-29T09:08:31;7.03;;;4.40;;
42832;SDS011;28479;51.478;5.692;2022-07-29T09:10:57;4.95;;;3.90;;
42832;SDS011;28479;51.478;5.692;2022-07-29T09:13:24;8.07;;;5.13;;
42832;SDS011;28479;51.478;5.692;2022-07-29T09:15:50;14.30;;;4.38;;
42832;SDS011;28479;51.478;5.692;2022-07-29T09:21:01;5.72;;;3.75;;
42832;SDS011;28479;51.478;5.692;2022-07-29T09:24:06;5.28;;;4.13;;
42832;SDS011;28479;51.478;5.692;2022-07-29T09:26:34;8.93;;;4.15;;
42832;SDS011;28479;51.478;5.692;2022-07-29T09:29:13;12.52;;;4.70;;
42832;SDS011;28479;51.478;5.692;2022-07-29T09:31:41;21.60;;;9.48;;
42832;SDS011;28479;51.478;5.692;2022-07-29T09:34:12;7.03;;;5.15;;
42832;SDS011;28479;51.478;5.692;2022-07-29T09:39:06;25.42;;;13.65;;
42832;SDS011;28479;51.478;5.692;2022-07-29T09:41:51;16.25;;;7.43;;
42832;SDS011;28479;51.478;5.692;2022-07-29T09:44:18;4.75;;;3.95;;
42832;SDS011;28479;51.478;5.692;2022-07-29T09:47:03;6.38;;;4.60;;
42832;SDS011;28479;51.478;5.692;2022-07-29T09:49:50;7.55;;;4.28;;
42832;SDS011;28479;51.478;5.692;2022-07-29T09:52:16;6.53;;;3.90;;
42832;SDS011;28479;51.478;5.692;2022-07-29T09:54:41;5.05;;;2.80;;
42832;SDS011;28479;51.478;5.692;2022-07-29T09:57:08;6.43;;;3.90;;
42832;SDS011;28479;51.478;5.692;2022-07-29T09:59:38;5.43;;;3.60;;
42832;SDS011;28479;51.478;5.692;2022-07-29T10:02:13;5.68;;;3.95;;
42832;SDS011;28479;51.478;5.692;2022-07-29T10:04:41;9.38;;;4.10;;
42832;SDS011;28479;51.478;5.692;2022-07-29T10:07:07;5.35;;;3.80;;
42832;SDS011;28479;51.478;5.692;2022-07-29T10:09:34;6.97;;;3.38;;
42832;SDS011;28479;51.478;5.692;2022-07-29T10:14:36;5.90;;;3.45;;
42832;SDS011;28479;51.478;5.692;2022-07-29T10:17:03;4.47;;;3.38;;
42832;SDS011;28479;51.478;5.692;2022-07-29T10:19:29;5.82;;;3.60;;
42832;SDS011;28479;51.478;5.692;2022-07-29T10:21:59;7.03;;;3.90;;
42832;SDS011;28479;51.478;5.692;2022-07-29T10:24:27;6.15;;;3.10;;
42832;SDS011;28479;51.478;5.692;2022-07-29T10:26:57;6.32;;;3.80;;
42832;SDS011;28479;51.478;5.692;2022-07-29T10:29:24;6.47;;;3.78;;
42832;SDS011;28479;51.478;5.692;2022-07-29T10:32:00;8.07;;;3.70;;
42832;SDS011;28479;51.478;5.692;2022-07-29T10:34:44;5.82;;;3.40;;
42832;SDS011;28479;51.478;5.692;2022-07-29T10:40:04;5.03;;;2.92;;
42832;SDS011;28479;51.478;5.692;2022-07-29T10:42:54;6.15;;;4.20;;
42832;SDS011;28479;51.478;5.692;2022-07-29T10:45:24;6.68;;;3.10;;
42832;SDS011;28479;51.478;5.692;2022-07-29T10:47:59;4.38;;;3.10;;
42832;SDS011;28479;51.478;5.692;2022-07-29T10:50:51;5.20;;;2.58;;
42832;SDS011;28479;51.478;5.692;2022-07-29T10:56:24;4.90;;;2.60;;
42832;SDS011;28479;51.478;5.692;2022-07-29T11:01:45;4.07;;;2.63;;
42832;SDS011;28479;51.478;5.692;2022-07-29T11:04:15;5.43;;;2.33;;
42832;SDS011;28479;51.478;5.692;2022-07-29T11:09:31;9.38;;;3.10;;
42832;SDS011;28479;51.478;5.692;2022-07-29T11:11:57;4.50;;;2.20;;
42832;SDS011;28479;51.478;5.692;2022-07-29T11:17:16;3.25;;;2.40;;
42832;SDS011;28479;51.478;5.692;2022-07-29T11:19:45;2.92;;;2.15;;
42832;SDS011;28479;51.478;5.692;2022-07-29T11:22:12;3.20;;;2.50;;
42832;SDS011;28479;51.478;5.692;2022-07-29T11:25:16;7.07;;;2.90;;
42832;SDS011;28479;51.478;5.692;2022-07-29T11:27:46;4.28;;;2.17;;
42832;SDS011;28479;51.478;5.692;2022-07-29T11:30:12;3.00;;;1.98;;
42832;SDS011;28479;51.478;5.692;2022-07-29T11:32:38;1.75;;;1.63;;
42832;SDS011;28479;51.478;5.692;2022-07-29T11:35:11;4.25;;;2.20;;
42832;SDS011;28479;51.478;5.692;2022-07-29T11:37:45;5.28;;;2.17;;
42832;SDS011;28479;51.478;5.692;2022-07-29T11:40:12;3.20;;;1.88;;
42832;SDS011;28479;51.478;5.692;2022-07-29T11:42:40;9.77;;;2.22;;
42832;SDS011;28479;51.478;5.692;2022-07-29T11:45:09;2.33;;;2.13;;
42832;SDS011;28479;51.478;5.692;2022-07-29T11:50:13;3.50;;;2.10;;
42832;SDS011;28479;51.478;5.692;2022-07-29T11:52:42;3.20;;;1.95;;
42832;SDS011;28479;51.478;5.692;2022-07-29T11:55:16;6.43;;;1.55;;
42832;SDS011;28479;51.478;5.692;2022-07-29T11:57:47;4.78;;;1.92;;
42832;SDS011;28479;51.478;5.692;2022-07-29T12:00:36;2.17;;;1.50;;
42832;SDS011;28479;51.478;5.692;2022-07-29T12:03:04;3.38;;;1.60;;
42832;SDS011;28479;51.478;5.692;2022-07-29T12:05:33;3.97;;;2.00;;
42832;SDS011;28479;51.478;5.692;2022-07-29T12:08:06;2.58;;;2.00;;
42832;SDS011;28479;51.478;5.692;2022-07-29T12:10:34;4.50;;;2.65;;
42832;SDS011;28479;51.478;5.692;2022-07-29T12:13:00;4.65;;;2.33;;
42832;SDS011;28479;51.478;5.692;2022-07-29T12:15:26;5.85;;;2.75;;
42832;SDS011;28479;51.478;5.692;2022-07-29T12:17:51;5.72;;;2.65;;
42832;SDS011;28479;51.478;5.692;2022-07-29T12:20:29;4.93;;;2.58;;
42832;SDS011;28479;51.478;5.692;2022-07-29T12:22:55;5.75;;;2.75;;
42832;SDS011;28479;51.478;5.692;2022-07-29T12:25:22;10.45;;;2.90;;
42832;SDS011;28479;51.478;5.692;2022-07-29T12:27:58;3.40;;;2.58;;
42832;SDS011;28479;51.478;5.692;2022-07-29T12:30:39;7.88;;;4.18;;
42832;SDS011;28479;51.478;5.692;2022-07-29T12:33:13;3.60;;;2.63;;
42832;SDS011;28479;51.478;5.692;2022-07-29T12:38:09;3.78;;;2.67;;
42832;SDS011;28479;51.478;5.692;2022-07-29T12:40:36;2.83;;;1.83;;
42832;SDS011;28479;51.478;5.692;2022-07-29T12:43:06;6.07;;;2.47;;
42832;SDS011;28479;51.478;5.692;2022-07-29T12:45:34;6.43;;;2.92;;
42832;SDS011;28479;51.478;5.692;2022-07-29T12:48:02;2.40;;;1.90;;
42832;SDS011;28479;51.478;5.692;2022-07-29T12:50:28;4.38;;;2.92;;
42832;SDS011;28479;51.478;5.692;2022-07-29T12:53:07;4.57;;;2.35;;
42832;SDS011;28479;51.478;5.692;2022-07-29T12:55:41;6.55;;;2.70;;
42832;SDS011;28479;51.478;5.692;2022-07-29T12:58:09;5.38;;;3.28;;
42832;SDS011;28479;51.478;5.692;2022-07-29T13:00:35;6.20;;;3.13;;
42832;SDS011;28479;51.478;5.692;2022-07-29T13:03:02;8.88;;;3.25;;
42832;SDS011;28479;51.478;5.692;2022-07-29T13:05:41;4.00;;;2.40;;
42832;SDS011;28479;51.478;5.692;2022-07-29T13:08:14;7.57;;;3.13;;
42832;SDS011;28479;51.478;5.692;2022-07-29T13:10:41;5.38;;;2.55;;
42832;SDS011;28479;51.478;5.692;2022-07-29T13:13:08;7.43;;;3.58;;
42832;SDS011;28479;51.478;5.692;2022-07-29T13:15:36;5.43;;;2.75;;
42832;SDS011;28479;51.478;5.692;2022-07-29T13:21:15;3.65;;;2.35;;
42832;SDS011;28479;51.478;5.692;2022-07-29T13:23:41;3.15;;;2.22;;
42832;SDS011;28479;51.478;5.692;2022-07-29T13:26:07;3.35;;;2.33;;
42832;SDS011;28479;51.478;5.692;2022-07-29T13:28:35;9.30;;;2.35;;
42832;SDS011;28479;51.478;5.692;2022-07-29T13:31:00;4.70;;;1.92;;
42832;SDS011;28479;51.478;5.692;2022-07-29T13:33:26;9.50;;;2.05;;
42832;SDS011;28479;51.478;5.692;2022-07-29T13:35:52;5.15;;;2.20;;
42832;SDS011;28479;51.478;5.692;2022-07-29T13:38:18;3.38;;;1.88;;
42832;SDS011;28479;51.478;5.692;2022-07-29T13:40:43;4.50;;;2.10;;
42832;SDS011;28479;51.478;5.692;2022-07-29T13:43:10;6.38;;;2.50;;
42832;SDS011;28479;51.478;5.692;2022-07-29T13:45:35;5.60;;;2.13;;
42832;SDS011;28479;51.478;5.692;2022-07-29T13:48:01;4.45;;;2.70;;
42832;SDS011;28479;51.478;5.692;2022-07-29T13:50:33;3.17;;;1.90;;
42832;SDS011;28479;51.478;5.692;2022-07-29T13:52:59;10.93;;;2.65;;
42832;SDS011;28479;51.478;5.692;2022-07-29T13:55:24;6.95;;;2.30;;
42832;SDS011;28479;51.478;5.692;2022-07-29T13:57:50;9.85;;;2.38;;
42832;SDS011;28479;51.478;5.692;2022-07-29T14:00:16;4.47;;;1.63;;
42832;SDS011;28479;51.478;5.692;2022-07-29T14:02:43;5.70;;;2.28;;
42832;SDS011;28479;51.478;5.692;2022-07-29T14:05:09;3.88;;;1.65;;
42832;SDS011;28479;51.478;5.692;2022-07-29T14:07:35;5.70;;;2.70;;
42832;SDS011;28479;51.478;5.692;2022-07-29T14:10:05;8.00;;;1.83;;
42832;SDS011;28479;51.478;5.692;2022-07-29T14:12:31;4.82;;;2.05;;
42832;SDS011;28479;51.478;5.692;2022-07-29T14:14:57;7.60;;;2.25;;
42832;SDS011;28479;51.478;5.692;2022-07-29T14:17:23;2.30;;;1.98;;
42832;SDS011;28479;51.478;5.692;2022-07-29T14:19:48;5.63;;;2.35;;
42832;SDS011;28479;51.478;5.692;2022-07-29T14:22:14;7.50;;;2.72;;
42832;SDS011;28479;51.478;5.692;2022-07-29T14:24:40;3.60;;;2.22;;
42832;SDS011;28479;51.478;5.692;2022-07-29T14:27:06;3.40;;;1.80;;
42832;SDS011;28479;51.478;5.692;2022-07-29T14:29:32;2.80;;;1.90;;
42832;SDS011;28479;51.478;5.692;2022-07-29T14:31:58;3.80;;;1.60;;
42832;SDS011;28479;51.478;5.692;2022-07-29T14:34:23;3.95;;;1.90;;
42832;SDS011;28479;51.478;5.692;2022-07-29T14:36:49;2.33;;;1.70;;
42832;SDS011;28479;51.478;5.692;2022-07-29T14:39:15;2.40;;;1.42;;
42832;SDS011;28479;51.478;5.692;2022-07-29T14:41:41;4.22;;;1.77;;
42832;SDS011;28479;51.478;5.692;2022-07-29T14:44:07;8.13;;;2.35;;
42832;SDS011;28479;51.478;5.692;2022-07-29T14:46:36;2.47;;;1.70;;
42832;SDS011;28479;51.478;5.692;2022-07-29T14:49:04;5.97;;;1.75;;
42832;SDS011;28479;51.478;5.692;2022-07-29T14:51:30;8.80;;;2.05;;
42832;SDS011;28479;51.478;5.692;2022-07-29T14:53:56;1.40;;;1.30;;
42832;SDS011;28479;51.478;5.692;2022-07-29T14:56:25;9.50;;;1.70;;
42832;SDS011;28479;51.478;5.692;2022-07-29T14:58:59;4.88;;;1.85;;
42832;SDS011;28479;51.478;5.692;2022-07-29T15:01:24;3.25;;;1.50;;
42832;SDS011;28479;51.478;5.692;2022-07-29T15:03:50;2.90;;;1.40;;
42832;SDS011;28479;51.478;5.692;2022-07-29T15:06:16;2.83;;;1.70;;
42832;SDS011;28479;51.478;5.692;2022-07-29T15:08:42;2.85;;;1.33;;
42832;SDS011;28479;51.478;5.692;2022-07-29T15:11:07;5.35;;;1.77;;
42832;SDS011;28479;51.478;5.692;2022-07-29T15:13:33;3.33;;;1.80;;
42832;SDS011;28479;51.478;5.692;2022-07-29T15:15:59;6.97;;;1.48;;
42832;SDS011;28479;51.478;5.692;2022-07-29T15:18:25;1.60;;;1.35;;
42832;SDS011;28479;51.478;5.692;2022-07-29T15:20:51;3.95;;;1.60;;
42832;SDS011;28479;51.478;5.692;2022-07-29T15:23:16;1.85;;;1.30;;
42832;SDS011;28479;51.478;5.692;2022-07-29T15:25:42;4.93;;;2.15;;
42832;SDS011;28479;51.478;5.692;2022-07-29T15:28:07;4.15;;;1.52;;
42832;SDS011;28479;51.478;5.692;2022-07-29T15:30:34;4.38;;;1.80;;
42832;SDS011;28479;51.478;5.692;2022-07-29T15:33:05;1.77;;;1.38;;
42832;SDS011;28479;51.478;5.692;2022-07-29T15:35:31;4.72;;;1.80;;
42832;SDS011;28479;51.478;5.692;2022-07-29T15:37:57;6.78;;;1.77;;
42832;SDS011;28479;51.478;5.692;2022-07-29T15:40:23;7.82;;;1.75;;
42832;SDS011;28479;51.478;5.692;2022-07-29T15:42:48;5.22;;;2.10;;